Current Conditions

Updated: 30-Jul-2014 12:12pm  
Summary / Temperature Wind Rain






Feels like: 96°F

1-hour difference
4.0°F 4.0°F warmer than last hour.

24-hour difference
0.5°F0.5°F colder than yesterday at this time.

  Today Yesterday
High: 95.4°F
12:11pm
101.6°F
2:37pm
Low: 76.3°F
5:03am
67.8°F
6:19am
 Wind from WNW WNW
0.3
Gust:  1 mph
0 Beaufort - Calm

Today: 7 - 12:21pm
Month: 12 mph - Jul 12
Rain Today: 0.00 in
Current Rate (/hr): 0.00 in
Max Rate (/hr):
Rain Yesterday: 0.00 in
Storm Rain: 0.00 in
This Month: 0.00 in
Season Total: 0.00 in
Last Rain Event: 84 days ago
Humidity / Barometer Sun / Moon
Humidity: 33 Decreased 4.0% in the last hour.
Dew Point: 61.7°F Increased 0.3°F in the last hour.
Barometer: 29.873 inHg  
Baro Trend: Steady
Sunrise: 6:01am
Sunset: 8:03pm
Moonrise: 9:29am
Moonset: 9:23pm
Sky Conditions UV Index
Sky: Mostly clear
Visibility: 10 miles
Clouds: A few clouds @ 400 ft
Current: 10.0  Very High 
Wednesday: 9.4  Very High 
Thursday: 9.4  Very High 
Air Quality Fire Danger
PM 2.5 Moderate
Ozone Good
Current: 55  Moderate 

Local Alerts Local Forecast
Local NWS Alerts
Today

Very
Hot
High 103
Tonight

Partly
Cloudy
Low 73
Thu

Very
Hot
High 103
Thu night

Clear

Low 71
Fri

Very
Hot
High 104
Fri night

Mostly
Clear
Low 71
Sat

Very
Hot
High 104

Local Radar Local Satellite Neighborhood Cam Sky Cam
Local Radar Local Satellite Neighborhood Cam Sky Cam


Nearby METAR Reports

KPTV - Porterville, California, USA
Distance from station: SSW 4mi, 7km
Updated: Wed, 30-Jul-2014 11:55am PDT
Few Clouds
Few Clouds
 Wind from W
Wind: W 5 mph , 7 km/h
Temperature: 93°F , 34°C
Dew Point: 57°F , 14°C
Humidity: 30%
Barometer: 29.96 inHg , 1014.6 hPa
Clouds: Few Clouds
Visibility: 10 miles , 16 km
Cloud details: Few Clouds 400 ft
2014/07/30 18:55 KPTV 301855Z AUTO 27004KT 10SM FEW004 34/14 A2996 RMK AO1 LTG DSNT N
KVIS - Visalia, California, USA
Distance from station: NW 27mi, 43km
Updated: Wed, 30-Jul-2014 11:55am PDT
Mostly cloudy
Mostly cloudy
 Wind from SSW
Wind: SSW 6 mph , 9 km/h, Gust: 18 mph , 30 km/h
Temperature: 82°F , 28°C
Heat Index: 83°F , 28°C
Dew Point: 63°F , 17°C
Humidity: 51%
Barometer: 29.96 inHg , 1014.6 hPa
Clouds: Mostly cloudy
Visibility: 8 miles , 13 km
Cloud details: Few Clouds 5000 ft
Partly cloudy 7500 ft
Mostly cloudy 9500 ft
2014/07/30 18:55 KVIS 301855Z AUTO 21005G16KT 8SM FEW050 SCT075 BKN095 28/17 A2996 RMK AO1 LTG DSNT NE TSE02

Metar display script from Saratoga-Weather.org



Visitor Map

Locations of visitors to this page